Chattaroy, Washington
Current Conditions -  °F | °C
As of 5:53 PM on Wednesday 17 Dec 2014 (Local Time) from KDEW Reporting Station
Overcast Overcast  
Wind Chill: -1°   Ceiling: 3700
Heat Index:   Visibility: 9mi
Dew Point:   Wind: 5mph
Humidity: 92%   Direction: 20°NNE
Pressure: 29.94"   Gusts: NA
Location:  47.89°N, 117.36°W
Report Text: KDEW 180153Z AUTO 02004KT 9SM SCT027 BKN037 OVC046 02/01 A2994 RMK AO2 SLP156 T00170006
Loading
Personal Weather Stations






























Interactive Weather Map New forecast layout! Learn more

10-Day Weather Forecast

Advertisements
Track Severe Weather on mobile